Time;durP1;ratioP1;P1;durP2;ratioP2;P2;SDS_P1;SDS_P2;PMS_P1;PMS_P2;Temp;Humidity;BMP_temperature;BMP_pressure;BME280_temperature;BME280_humidity;BME280_pressure;Samples;Min_cycle;Max_cycle;Signal;HPM_P1;HPM_P2
2023/09/10 00:01:09;;;;;;;3.47;1.80;;;;;;;16.81;59.32;98535.06;5072268;28;20271;-56
2023/09/10 00:03:35;;;;;;;3.05;1.60;;;;;;;16.97;59.61;98584.16;5071972;28;20570;-57
2023/09/10 00:06:01;;;;;;;2.45;1.73;;;;;;;16.95;59.55;98579.06;5072148;28;20188;-57
2023/09/10 00:08:27;;;;;;;2.80;1.58;;;;;;;16.91;59.74;98582.09;5071789;28;20210;-54
2023/09/10 00:10:54;;;;;;;3.63;2.00;;;;;;;16.73;60.31;98557.66;5071448;28;20212;-56
2023/09/10 00:13:20;;;;;;;4.15;1.70;;;;;;;16.96;60.19;98580.69;5071646;28;20275;-56
2023/09/10 00:15:45;;;;;;;2.72;1.55;;;;;;;17.00;59.93;98573.41;5104118;28;20363;-56
2023/09/10 00:18:11;;;;;;;3.45;1.63;;;;;;;16.87;60.29;98565.88;5114688;28;20619;-56
2023/09/10 00:20:37;;;;;;;6.00;1.73;;;;;;;16.76;59.99;98546.91;5114550;28;20681;-56
2023/09/10 00:23:03;;;;;;;2.60;1.48;;;;;;;16.78;60.51;98569.31;5114633;28;20258;-56
2023/09/10 00:25:29;;;;;;;6.05;1.70;;;;;;;16.48;60.96;98539.91;5114522;28;20192;-56
2023/09/10 00:27:56;;;;;;;2.15;1.60;;;;;;;16.45;60.96;98540.19;5114532;28;20194;-57
2023/09/10 00:30:22;;;;;;;1.73;1.63;;;;;;;16.38;61.79;98539.91;5114533;28;20176;-57
2023/09/10 00:32:47;;;;;;;2.38;1.85;;;;;;;16.57;61.56;98558.19;5114308;28;20291;-54
2023/09/10 00:35:12;;;;;;;3.35;1.90;;;;;;;16.67;60.58;98552.97;5114694;28;20373;-57
2023/09/10 00:37:38;;;;;;;4.13;1.85;;;;;;;16.69;60.83;98561.50;5114349;28;20646;-57
2023/09/10 00:40:05;;;;;;;2.00;1.90;;;;;;;16.86;59.94;98569.44;5114325;28;20167;-57
2023/09/10 00:42:31;;;;;;;3.95;1.90;;;;;;;16.97;59.64;98560.63;5113712;28;20224;-57
2023/09/10 00:44:56;;;;;;;3.63;2.10;;;;;;;17.00;58.91;98561.16;5114257;28;20703;-57
2023/09/10 00:47:22;;;;;;;1.85;1.70;;;;;;;16.85;58.39;98535.59;5114400;28;20167;-57
2023/09/10 00:49:49;;;;;;;5.60;1.90;;;;;;;16.83;58.76;98521.84;5114119;28;20180;-57
2023/09/10 00:52:16;;;;;;;1.85;1.67;;;;;;;16.87;58.18;98529.28;5114020;28;20210;-57
2023/09/10 00:54:42;;;;;;;1.98;1.70;;;;;;;17.11;58.55;98558.38;5113283;28;20559;-54
2023/09/10 00:57:07;;;;;;;5.15;1.90;;;;;;;16.91;58.86;98514.94;5113632;28;20468;-55
2023/09/10 00:59:34;;;;;;;2.30;1.75;;;;;;;16.91;58.99;98508.91;5113930;28;20651;-55
2023/09/10 01:01:59;;;;;;;5.10;1.60;;;;;;;17.00;58.56;98526.34;5070549;28;20190;-55
2023/09/10 01:04:25;;;;;;;3.92;1.80;;;;;;;17.13;58.85;98545.19;5070666;28;20188;-55
2023/09/10 01:06:51;;;;;;;5.95;2.05;;;;;;;16.87;59.39;98508.38;5070703;28;20180;-55
2023/09/10 01:09:17;;;;;;;5.32;1.73;;;;;;;16.88;59.27;98514.41;5070497;28;20203;-55
2023/09/10 01:12:07;;;;;;;2.80;2.00;;;;;;;17.10;59.34;98546.28;5070497;28;20693;-55
2023/09/10 01:14:38;;;;;;;4.60;1.85;;;;;;;17.03;59.67;98557.44;5070662;28;20184;-56
2023/09/10 01:17:49;;;;;;;2.80;1.90;;;;;;;17.13;58.92;98555.63;5070469;28;20195;-55
2023/09/10 01:20:29;;;;;;;3.58;1.80;;;;;;;17.13;59.08;98539.94;5010646;28;20213;-56
2023/09/10 01:23:11;;;;;;;2.17;1.80;;;;;;;16.86;59.18;98517.16;5010581;28;20186;-56
2023/09/10 01:25:37;;;;;;;1.50;1.40;;;;;;;16.85;59.32;98522.53;5011001;28;20218;-56
2023/09/10 01:28:03;;;;;;;1.85;1.70;;;;;;;17.07;59.07;98546.56;5010625;28;20183;-56
2023/09/10 01:30:32;;;;;;;2.25;1.73;;;;;;;17.08;58.80;98542.16;5010522;28;20230;-56
2023/09/10 01:33:18;;;;;;;1.90;1.70;;;;;;;16.98;58.82;98520.44;5020086;28;20214;-55
2023/09/10 01:35:59;;;;;;;2.53;1.45;;;;;;;17.08;58.61;98542.16;5030265;28;20280;-56
2023/09/10 01:38:40;;;;;;;2.30;1.77;;;;;;;16.97;59.18;98534.47;5030100;28;20699;-56
2023/09/10 01:41:12;;;;;;;5.15;1.60;;;;;;;16.91;59.16;98535.84;5030164;28;20185;-56
2023/09/10 01:43:39;;;;;;;3.53;2.25;;;;;;;16.93;59.42;98543.56;5030166;28;20190;-56
2023/09/10 01:46:06;;;;;;;2.58;1.90;;;;;;;16.78;59.14;98519.66;5030108;28;20273;-56
2023/09/10 01:48:32;;;;;;;1.80;1.63;;;;;;;16.96;59.45;98540.69;5029967;28;20247;-56
2023/09/10 01:50:58;;;;;;;1.65;1.55;;;;;;;16.77;59.33;98517.19;5029863;28;20189;-56
2023/09/10 01:53:23;;;;;;;2.65;1.95;;;;;;;16.63;59.77;98513.25;5029983;28;20170;-55
2023/09/10 01:55:48;;;;;;;4.10;2.03;;;;;;;16.45;60.49;98493.19;5078380;28;20215;-56
2023/09/10 01:58:14;;;;;;;4.70;1.77;;;;;;;16.71;60.04;98525.59;5112871;28;20268;-56
2023/09/10 02:00:40;;;;;;;2.00;1.48;;;;;;;16.79;59.97;98531.75;5112989;28;20183;-56
2023/09/10 02:03:06;;;;;;;3.80;1.70;;;;;;;16.85;59.61;98530.38;5112724;28;20181;-56
2023/09/10 02:05:32;;;;;;;3.55;2.00;;;;;;;16.91;60.15;98540.28;5112664;28;20175;-55
2023/09/10 02:07:57;;;;;;;5.40;2.10;;;;;;;16.84;59.86;98526.94;5112533;28;20252;-56
2023/09/10 02:10:23;;;;;;;2.22;1.88;;;;;;;16.73;59.89;98506.19;5112600;28;20191;-56
2023/09/10 02:12:48;;;;;;;3.60;2.33;;;;;;;16.85;59.68;98515.50;5112340;28;20203;-57
2023/09/10 02:15:14;;;;;;;3.42;1.77;;;;;;;17.03;59.71;98539.16;5112490;28;20274;-57
2023/09/10 02:17:39;;;;;;;2.88;1.80;;;;;;;16.77;59.49;98515.41;5112374;28;20672;-57
2023/09/10 02:20:09;;;;;;;2.10;2.00;;;;;;;16.85;60.12;98535.59;5112323;28;20541;-56
2023/09/10 02:22:39;;;;;;;4.30;1.60;;;;;;;16.77;60.42;98530.25;5112185;28;20211;-55
2023/09/10 02:25:05;;;;;;;2.83;1.92;;;;;;;16.52;60.15;98487.28;5112208;28;20648;-57
2023/09/10 02:27:31;;;;;;;3.55;1.85;;;;;;;16.58;60.10;98491.94;5112210;28;20182;-57
2023/09/10 02:29:57;;;;;;;5.72;2.13;;;;;;;16.80;60.36;98522.94;5112160;28;20182;-57
2023/09/10 02:32:23;;;;;;;4.20;1.40;;;;;;;16.65;60.29;98492.19;5112045;28;20203;-57
2023/09/10 02:34:51;;;;;;;4.28;2.65;;;;;;;16.58;60.61;98494.53;5112126;28;20171;-57
2023/09/10 02:37:17;;;;;;;7.68;1.70;;;;;;;16.57;60.91;98494.69;5112055;28;20206;-56
2023/09/10 02:39:42;;;;;;;1.90;1.80;;;;;;;16.89;60.54;98532.56;5111734;28;20563;-57
2023/09/10 02:42:07;;;;;;;2.20;2.00;;;;;;;16.76;60.28;98521.59;5111945;28;20176;-57
2023/09/10 02:44:33;;;;;;;2.00;1.90;;;;;;;16.60;61.01;98525.72;5111969;28;20218;-57
2023/09/10 02:46:58;;;;;;;6.53;1.77;;;;;;;16.63;61.65;98530.69;5111883;28;20262;-57
2023/09/10 02:49:24;;;;;;;3.30;1.85;;;;;;;16.36;61.79;98507.03;5111507;28;20558;-57
2023/09/10 02:51:50;;;;;;;3.67;1.95;;;;;;;16.33;62.36;98543.88;5111696;28;20771;-57
2023/09/10 02:54:16;;;;;;;3.83;1.60;;;;;;;16.36;62.56;98556.66;5111765;28;20203;-55
2023/09/10 02:56:41;;;;;;;4.25;2.15;;;;;;;16.19;63.10;98526.84;5111373;28;20543;-55
2023/09/10 02:59:07;;;;;;;4.30;1.70;;;;;;;16.33;62.71;98549.09;5111683;28;20245;-56
2023/09/10 03:01:33;;;;;;;2.80;1.70;;;;;;;16.02;63.17;98504.00;5111557;28;20183;-56
2023/09/10 03:03:58;;;;;;;2.30;1.38;;;;;;;16.07;63.77;98516.66;5111260;28;20186;-56
2023/09/10 03:06:24;;;;;;;6.32;2.50;;;;;;;15.93;63.84;98498.78;5111591;28;20206;-56
2023/09/10 03:08:49;;;;;;;2.92;1.92;;;;;;;15.96;64.19;98522.00;5111163;28;20175;-56
2023/09/10 03:11:14;;;;;;;1.63;1.52;;;;;;;16.06;64.40;98541.09;5111613;28;20195;-56
2023/09/10 03:13:40;;;;;;;2.47;1.88;;;;;;;15.81;64.55;98508.50;5111511;28;20262;-56
2023/09/10 03:16:05;;;;;;;2.67;1.75;;;;;;;16.02;64.86;98540.56;5111448;28;20261;-56
2023/09/10 03:18:30;;;;;;;2.20;2.00;;;;;;;15.82;64.47;98504.13;5111004;28;20207;-56
2023/09/10 03:20:56;;;;;;;2.50;1.80;;;;;;;15.92;64.16;98523.25;5111395;28;20216;-56
2023/09/10 03:23:21;;;;;;;5.05;2.65;;;;;;;16.14;64.01;98551.69;5111399;28;20168;-56
2023/09/10 03:25:47;;;;;;;2.17;1.98;;;;;;;16.16;63.89;98547.16;5111403;28;20254;-56
2023/09/10 03:28:12;;;;;;;2.33;1.70;;;;;;;16.24;63.46;98550.75;5111221;28;20217;-56
2023/09/10 03:30:38;;;;;;;3.40;1.77;;;;;;;16.18;63.11;98525.19;5111062;28;20559;-56
2023/09/10 03:33:03;;;;;;;1.95;1.75;;;;;;;16.30;62.44;98528.47;5111290;28;20195;-56
2023/09/10 03:35:29;;;;;;;2.95;1.80;;;;;;;16.29;62.35;98519.00;5111296;28;20167;-56
2023/09/10 03:37:54;;;;;;;2.10;1.75;;;;;;;16.36;62.66;98538.38;5111211;28;20258;-56
2023/09/10 03:40:19;;;;;;;1.90;1.70;;;;;;;16.17;62.89;98500.03;5110933;28;20185;-56
2023/09/10 03:42:45;;;;;;;3.80;1.40;;;;;;;16.23;63.09;98527.38;5111163;28;20175;-56
2023/09/10 03:45:10;;;;;;;4.28;2.13;;;;;;;16.36;63.09;98551.41;5111234;28;20180;-56
2023/09/10 03:47:37;;;;;;;1.70;1.60;;;;;;;16.14;62.94;98509.91;5111107;28;20190;-55
2023/09/10 03:50:02;;;;;;;4.90;2.65;;;;;;;16.11;62.99;98507.59;5110799;28;20250;-56
2023/09/10 03:52:28;;;;;;;6.60;1.80;;;;;;;16.26;62.68;98533.16;5111021;28;20293;-56
2023/09/10 03:54:54;;;;;;;3.10;1.83;;;;;;;16.35;62.73;98545.41;5111120;28;20171;-56
2023/09/10 03:57:19;;;;;;;2.15;1.95;;;;;;;16.30;62.26;98523.25;5110771;28;20237;-56
2023/09/10 03:59:44;;;;;;;3.65;2.08;;;;;;;16.45;62.70;98550.66;5111039;28;20259;-56
2023/09/10 04:02:11;;;;;;;4.00;1.95;;;;;;;16.40;62.72;98555.44;5087978;28;20211;-56
2023/09/10 04:04:36;;;;;;;7.65;1.73;;;;;;;16.14;62.85;98522.97;5088299;28;20279;-56
2023/09/10 04:07:05;;;;;;;2.13;1.92;;;;;;;16.27;62.95;98539.22;5088161;28;20255;-56
2023/09/10 04:09:30;;;;;;;4.85;1.58;;;;;;;16.26;62.69;98525.31;5087949;28;20651;-56
2023/09/10 04:11:57;;;;;;;3.22;1.80;;;;;;;16.40;62.86;98560.69;5087951;28;20249;-56
2023/09/10 04:14:23;;;;;;;1.77;1.67;;;;;;;16.29;62.75;98532.06;5088183;28;20698;-56
2023/09/10 04:16:48;;;;;;;2.53;1.67;;;;;;;16.28;62.82;98541.66;5088091;28;20408;-56
2023/09/10 04:19:14;;;;;;;1.70;1.58;;;;;;;16.45;62.77;98568.94;5088101;28;20298;-56
2023/09/10 04:21:39;;;;;;;2.22;1.90;;;;;;;16.24;62.90;98539.47;5087992;28;20194;-56
2023/09/10 04:24:05;;;;;;;1.85;1.75;;;;;;;16.50;62.70;98577.19;5087976;28;20643;-56
2023/09/10 04:26:31;;;;;;;2.25;1.80;;;;;;;16.45;62.79;98576.75;5087891;28;20267;-56
2023/09/10 04:28:56;;;;;;;6.63;2.00;;;;;;;16.37;62.78;98566.13;5087881;28;20289;-56
2023/09/10 04:31:21;;;;;;;3.83;2.00;;;;;;;16.34;62.84;98555.97;5090013;28;20204;-56
2023/09/10 04:33:47;;;;;;;1.80;1.60;;;;;;;16.47;63.03;98583.50;5108812;28;20642;-56
2023/09/10 04:36:13;;;;;;;3.13;1.80;;;;;;;16.53;63.28;98597.78;5114178;28;20224;-56
2023/09/10 04:38:39;;;;;;;3.67;1.52;;;;;;;16.50;62.76;98583.22;5114324;28;20182;-56
2023/09/10 04:41:04;;;;;;;3.63;2.10;;;;;;;16.40;62.63;98566.75;5114269;28;20163;-56
2023/09/10 04:43:30;;;;;;;2.10;1.90;;;;;;;16.44;62.38;98551.63;5114286;28;20172;-56
2023/09/10 04:45:55;;;;;;;2.80;1.65;;;;;;;16.76;62.23;98580.88;5114164;28;20618;-56
2023/09/10 04:48:20;;;;;;;3.08;2.03;;;;;;;16.83;61.98;98585.41;5113870;28;20622;-56
2023/09/10 04:50:46;;;;;;;3.97;1.73;;;;;;;16.72;62.14;98569.88;5114157;28;20169;-56
2023/09/10 04:53:13;;;;;;;3.72;1.73;;;;;;;16.60;62.27;98546.63;5113724;28;21364;-56
2023/09/10 04:55:39;;;;;;;2.63;1.73;;;;;;;16.77;61.83;98548.53;5114078;28;20199;-57
2023/09/10 04:58:04;;;;;;;2.15;1.88;;;;;;;16.82;61.53;98555.00;5113941;28;20182;-56
2023/09/10 05:00:30;;;;;;;3.05;1.98;;;;;;;16.78;61.71;98545.78;5113895;28;20193;-56
2023/09/10 05:02:55;;;;;;;3.60;1.90;;;;;;;16.95;61.73;98560.75;5113873;28;20172;-56
2023/09/10 05:05:23;;;;;;;2.15;1.95;;;;;;;17.03;61.40;98566.09;5113865;28;20282;-56
2023/09/10 05:07:49;;;;;;;2.00;1.73;;;;;;;16.94;61.12;98530.34;5113806;28;20713;-56
2023/09/10 05:10:15;;;;;;;2.10;1.70;;;;;;;17.11;60.95;98555.78;5113762;28;20183;-56
2023/09/10 05:12:41;;;;;;;1.90;1.80;;;;;;;17.05;60.80;98547.66;5113635;28;20692;-56
2023/09/10 05:15:07;;;;;;;1.80;1.63;;;;;;;17.12;60.82;98554.78;5113689;28;20167;-56
2023/09/10 05:17:33;;;;;;;1.70;1.60;;;;;;;16.97;61.16;98529.25;5113360;28;20280;-56
2023/09/10 05:19:58;;;;;;;3.90;1.92;;;;;;;17.15;60.67;98549.25;5113565;28;20259;-56
2023/09/10 05:22:23;;;;;;;5.00;2.33;;;;;;;17.14;60.25;98524.09;5113538;28;20210;-56
2023/09/10 05:24:49;;;;;;;1.77;1.65;;;;;;;17.19;60.07;98534.16;5113468;28;20182;-56
2023/09/10 05:27:14;;;;;;;2.53;1.80;;;;;;;17.28;59.92;98548.97;5113449;28;20179;-55
2023/09/10 05:29:39;;;;;;;2.33;1.70;;;;;;;17.37;60.44;98569.84;5113325;28;20695;-57
2023/09/10 05:32:05;;;;;;;4.25;2.22;;;;;;;17.38;60.03;98565.47;5113365;28;20744;-55
2023/09/10 05:34:30;;;;;;;3.42;1.77;;;;;;;17.47;60.12;98575.91;5113272;28;20176;-55
2023/09/10 05:36:56;;;;;;;3.72;1.85;;;;;;;17.24;60.18;98534.50;5113277;28;20167;-55
2023/09/10 05:39:21;;;;;;;1.75;1.60;;;;;;;17.40;59.84;98558.31;5113292;28;20175;-56
2023/09/10 05:41:46;;;;;;;1.83;1.73;;;;;;;17.46;59.63;98550.72;5112891;28;20267;-56
2023/09/10 05:44:12;;;;;;;1.80;1.70;;;;;;;17.47;59.02;98544.50;5090080;28;20291;-57
2023/09/10 05:46:37;;;;;;;2.78;1.65;;;;;;;17.75;59.22;98579.34;5090285;28;20622;-56
2023/09/10 05:49:03;;;;;;;4.88;1.63;;;;;;;17.57;59.23;98547.09;5090146;28;20180;-56
2023/09/10 05:51:28;;;;;;;2.55;1.50;;;;;;;17.68;59.07;98575.69;5090035;28;20539;-57
2023/09/10 05:53:54;;;;;;;1.65;1.55;;;;;;;17.64;59.55;98569.06;5049633;28;20756;-57
2023/09/10 05:56:19;;;;;;;3.33;1.90;;;;;;;17.55;59.09;98547.22;5049677;28;20185;-55
2023/09/10 05:58:45;;;;;;;4.72;2.00;;;;;;;17.56;59.16;98541.00;5049733;28;20177;-57
2023/09/10 06:01:10;;;;;;;6.05;1.65;;;;;;;17.80;59.38;98577.13;5049744;28;20722;-57
2023/09/10 06:03:36;;;;;;;6.30;1.60;;;;;;;17.78;59.08;98558.16;5049644;28;20679;-57
2023/09/10 06:06:01;;;;;;;1.67;1.50;;;;;;;17.94;58.99;98581.88;5049696;28;20427;-57
2023/09/10 06:08:29;;;;;;;3.60;2.10;;;;;;;18.04;58.31;98587.88;5049490;28;20579;-56
2023/09/10 06:10:55;;;;;;;1.88;1.70;;;;;;;17.79;58.07;98551.94;5049297;28;20617;-56
2023/09/10 06:13:20;;;;;;;1.70;1.60;;;;;;;17.93;58.18;98569.75;5049521;28;20281;-56
2023/09/10 06:15:45;;;;;;;1.45;1.35;;;;;;;18.10;57.92;98585.50;5049535;28;20216;-56
2023/09/10 06:18:11;;;;;;;1.67;1.58;;;;;;;18.25;57.39;98601.53;5049433;28;20188;-56
2023/09/10 06:20:36;;;;;;;3.65;1.63;;;;;;;18.10;58.03;98569.78;5051122;28;20200;-56
2023/09/10 06:23:02;;;;;;;1.50;1.40;;;;;;;18.42;57.72;98608.63;5069251;28;20263;-56
2023/09/10 06:25:27;;;;;;;1.40;1.30;;;;;;;18.45;57.34;98611.78;5100866;28;20194;-56
2023/09/10 06:27:53;;;;;;;2.00;1.52;;;;;;;18.31;57.53;98572.97;5049109;28;20276;-57
2023/09/10 06:30:18;;;;;;;5.43;1.60;;;;;;;18.61;57.28;98605.84;5049202;28;20255;-57
2023/09/10 06:32:43;;;;;;;3.35;1.95;;;;;;;18.66;56.86;98588.69;5049083;28;20267;-56
2023/09/10 06:35:09;;;;;;;3.15;1.67;;;;;;;18.62;56.64;98565.56;5049167;28;20299;-57
2023/09/10 06:37:34;;;;;;;6.55;1.90;;;;;;;18.89;56.24;98615.28;5049030;28;20181;-57
2023/09/10 06:40:00;;;;;;;3.03;1.77;;;;;;;18.88;56.17;98582.16;5049025;28;20177;-57
2023/09/10 06:42:26;;;;;;;4.22;1.98;;;;;;;19.18;55.42;98621.06;5049048;28;20207;-56
2023/09/10 06:44:51;;;;;;;2.85;1.52;;;;;;;19.14;55.19;98593.50;5049008;28;20564;-57
2023/09/10 06:47:16;;;;;;;2.08;1.70;;;;;;;19.26;54.93;98584.41;5048968;28;20189;-57
2023/09/10 06:49:42;;;;;;;5.65;2.05;;;;;;;19.59;54.35;98626.44;5048824;28;20264;-57
2023/09/10 06:52:08;;;;;;;3.10;2.10;;;;;;;19.77;53.66;98621.13;5048901;28;20215;-56
2023/09/10 06:54:33;;;;;;;4.88;1.70;;;;;;;19.73;53.63;98601.41;5048051;28;20185;-56
2023/09/10 06:57:00;;;;;;;3.38;1.88;;;;;;;19.96;53.51;98612.97;5048739;28;20203;-57
2023/09/10 06:59:26;;;;;;;2.38;1.52;;;;;;;20.00;53.11;98595.94;5094716;28;20709;-57
2023/09/10 07:01:52;;;;;;;4.68;1.98;;;;;;;20.06;52.31;98593.50;5111636;28;20592;-56
2023/09/10 07:04:20;;;;;;;3.70;1.90;;;;;;;20.27;52.52;98621.97;5111603;28;20175;-56
2023/09/10 07:06:47;;;;;;;2.65;1.92;;;;;;;20.26;51.90;98609.81;5111564;28;20181;-57
2023/09/10 07:09:13;;;;;;;2.75;1.88;;;;;;;20.40;51.66;98632.88;5111440;28;20214;-56
2023/09/10 07:11:38;;;;;;;2.55;1.73;;;;;;;20.35;51.93;98593.91;5111516;28;20203;-57
2023/09/10 07:14:08;;;;;;;2.40;1.58;;;;;;;20.68;51.81;98621.09;5068348;28;20525;-57
2023/09/10 07:16:34;;;;;;;2.42;2.00;;;;;;;20.53;51.03;98596.41;5068522;28;20177;-57
2023/09/10 07:19:00;;;;;;;2.92;2.30;;;;;;;20.79;51.46;98626.00;5068356;28;20185;-56
2023/09/10 07:21:25;;;;;;;5.65;1.90;;;;;;;20.88;51.38;98615.38;5068373;28;20176;-56
2023/09/10 07:23:51;;;;;;;30.05;6.47;;;;;;;20.90;51.09;98600.25;5068293;28;20578;-56
2023/09/10 07:26:16;;;;;;;8.90;2.35;;;;;;;21.23;51.29;98630.81;5068398;28;20735;-56
2023/09/10 07:28:42;;;;;;;3.47;1.98;;;;;;;21.30;50.27;98615.16;5068351;28;20189;-56
2023/09/10 07:31:07;;;;;;;5.72;1.90;;;;;;;21.52;49.24;98617.94;5068309;28;20169;-57
2023/09/10 07:33:33;;;;;;;2.63;1.85;;;;;;;21.73;49.02;98635.84;5068250;28;20188;-56
2023/09/10 07:35:58;;;;;;;4.60;2.25;;;;;;;21.82;49.20;98626.91;5068165;28;20183;-56
2023/09/10 07:38:24;;;;;;;3.25;1.90;;;;;;;21.90;49.21;98614.53;5068255;28;20261;-56
2023/09/10 07:40:49;;;;;;;2.03;1.70;;;;;;;22.17;49.05;98634.34;5068152;28;20218;-56
2023/09/10 07:43:15;;;;;;;2.13;1.92;;;;;;;22.24;49.27;98619.47;5068189;28;20648;-57
2023/09/10 07:45:40;;;;;;;2.67;1.90;;;;;;;22.52;49.35;98639.13;5100491;28;20180;-56
2023/09/10 07:48:06;;;;;;;6.50;2.17;;;;;;;22.56;46.94;98621.97;5111380;28;20206;-57
2023/09/10 07:50:31;;;;;;;5.00;2.72;;;;;;;22.74;46.82;98643.59;5111139;28;20167;-56
2023/09/10 07:52:57;;;;;;;6.43;3.10;;;;;;;22.85;46.43;98630.00;5111014;28;20199;-57
2023/09/10 07:55:23;;;;;;;9.70;3.00;;;;;;;22.85;45.81;98606.25;5111076;28;20182;-57
2023/09/10 07:57:49;;;;;;;5.55;2.72;;;;;;;22.96;46.09;98605.84;5111119;28;20172;-57
2023/09/10 08:00:16;;;;;;;4.70;2.45;;;;;;;23.09;46.33;98606.06;5111064;28;20629;-57
2023/09/10 08:02:42;;;;;;;5.82;2.67;;;;;;;23.31;46.33;98626.34;5110891;28;20183;-57
2023/09/10 08:05:07;;;;;;;12.88;2.95;;;;;;;23.47;45.43;98631.44;5112881;28;20175;-57
2023/09/10 08:07:33;;;;;;;8.20;3.25;;;;;;;23.48;45.01;98617.28;5114973;28;20667;-57
2023/09/10 08:10:06;;;;;;;8.07;3.17;;;;;;;23.69;45.58;98640.13;5114177;28;20242;-56
2023/09/10 08:12:31;;;;;;;5.10;3.15;;;;;;;23.68;44.82;98625.28;5114800;28;20218;-56
2023/09/10 08:14:57;;;;;;;8.63;3.10;;;;;;;23.89;44.72;98642.28;5114810;28;20175;-56
2023/09/10 08:17:22;;;;;;;7.93;3.90;;;;;;;23.94;45.22;98634.63;5114881;28;20227;-57
2023/09/10 08:19:47;;;;;;;8.73;4.28;;;;;;;23.82;44.73;98615.72;5114451;28;20266;-56
2023/09/10 08:22:13;;;;;;;10.57;3.70;;;;;;;23.86;43.60;98646.88;5114756;28;20255;-56
2023/09/10 08:24:38;;;;;;;6.00;3.75;;;;;;;23.86;43.55;98632.84;5114740;28;20544;-56
2023/09/10 08:27:04;;;;;;;6.25;3.28;;;;;;;24.06;43.70;98646.38;5114738;28;20176;-56
2023/09/10 08:29:30;;;;;;;7.40;3.53;;;;;;;24.20;43.81;98643.72;5114687;28;20171;-56
2023/09/10 08:31:56;;;;;;;11.80;3.45;;;;;;;24.23;43.41;98634.59;5114418;28;20242;-56
2023/09/10 08:34:22;;;;;;;7.78;3.63;;;;;;;24.30;43.45;98626.53;5114532;28;20167;-56
2023/09/10 08:36:47;;;;;;;9.43;3.28;;;;;;;24.31;43.58;98614.94;5114272;28;20252;-56
2023/09/10 08:39:12;;;;;;;6.35;2.88;;;;;;;24.47;42.20;98638.53;5114439;28;20548;-56
2023/09/10 08:42:05;;;;;;;5.38;2.85;;;;;;;24.62;41.69;98647.25;5114380;28;20175;-56
2023/09/10 08:44:32;;;;;;;5.55;3.13;;;;;;;24.40;40.88;98637.66;5103470;28;20213;-56
2023/09/10 08:47:00;;;;;;;8.80;2.80;;;;;;;24.31;41.54;98617.59;5114195;28;20172;-56
2023/09/10 08:49:28;;;;;;;5.93;2.50;;;;;;;24.42;41.39;98624.22;5113744;28;20608;-57
2023/09/10 08:51:55;;;;;;;7.82;2.75;;;;;;;24.68;39.87;98635.91;5114034;28;20559;-56
2023/09/10 08:54:21;;;;;;;3.05;2.35;;;;;;;24.72;40.53;98634.53;5114090;28;20641;-56
2023/09/10 08:56:48;;;;;;;5.80;2.72;;;;;;;24.68;39.76;98598.88;5113778;28;20171;-56
2023/09/10 08:59:14;;;;;;;2.55;2.35;;;;;;;24.82;39.37;98599.81;5113818;28;20617;-57
2023/09/10 09:01:42;;;;;;;7.38;2.95;;;;;;;24.90;39.05;98608.44;5114046;28;20201;-57
2023/09/10 09:04:09;;;;;;;5.28;2.47;;;;;;;24.84;39.06;98600.47;5113947;28;20167;-57
2023/09/10 09:06:37;;;;;;;3.00;2.60;;;;;;;24.93;40.01;98613.38;5113877;28;20229;-57
2023/09/10 09:09:05;;;;;;;6.00;2.58;;;;;;;25.10;39.10;98624.50;5113883;28;20171;-57
2023/09/10 09:11:35;;;;;;;4.65;2.35;;;;;;;25.12;39.40;98618.03;5113194;28;20264;-57
2023/09/10 09:14:03;;;;;;;3.42;2.75;;;;;;;25.01;39.91;98592.06;5113722;28;20175;-57
2023/09/10 09:16:30;;;;;;;2.95;2.20;;;;;;;25.21;38.64;98621.34;5112998;28;20178;-57
2023/09/10 09:18:56;;;;;;;5.93;2.33;;;;;;;25.17;39.78;98601.53;5113286;28;20652;-57
2023/09/10 09:21:24;;;;;;;5.45;2.03;;;;;;;25.26;38.72;98624.28;5113697;28;20179;-57
2023/09/10 09:23:49;;;;;;;5.18;2.25;;;;;;;25.08;39.41;98606.16;5113317;28;20627;-57
2023/09/10 09:26:14;;;;;;;2.70;2.50;;;;;;;25.30;39.08;98613.09;5113901;28;20171;-57
2023/09/10 09:28:40;;;;;;;3.42;2.40;;;;;;;25.45;38.76;98616.47;5113217;28;20207;-57
2023/09/10 09:31:09;;;;;;;4.03;2.20;;;;;;;25.48;39.03;98610.78;5113428;28;20175;-56
2023/09/10 09:33:38;;;;;;;3.33;3.03;;;;;;;25.41;38.50;98580.78;5113312;28;20655;-56
2023/09/10 09:36:11;;;;;;;8.93;2.85;;;;;;;25.41;38.98;98578.13;5113249;28;20237;-57
2023/09/10 09:38:45;;;;;;;3.20;2.40;;;;;;;25.43;39.24;98580.59;5113305;28;20548;-57
2023/09/10 09:41:11;;;;;;;3.85;2.42;;;;;;;25.69;39.77;98604.56;5113236;28;20273;-57
2023/09/10 09:43:36;;;;;;;6.07;2.72;;;;;;;25.54;39.57;98567.59;5112990;28;20575;-57
2023/09/10 09:46:03;;;;;;;5.05;2.67;;;;;;;25.67;39.13;98577.47;5113076;28;20182;-57
2023/09/10 09:48:29;;;;;;;6.30;2.60;;;;;;;25.60;38.84;98569.47;5113094;28;20171;-57
2023/09/10 09:50:56;;;;;;;3.55;2.53;;;;;;;25.71;39.50;98565.47;5112984;28;20183;-57
2023/09/10 09:53:30;;;;;;;5.40;2.97;;;;;;;25.90;39.32;98573.50;5112886;28;20207;-57
2023/09/10 09:56:01;;;;;;;3.33;2.60;;;;;;;26.06;39.04;98588.28;5112882;28;20178;-57
2023/09/10 09:58:30;;;;;;;4.80;2.55;;;;;;;25.93;38.84;98575.78;5112925;28;20175;-56
2023/09/10 10:00:59;;;;;;;4.57;3.13;;;;;;;26.06;38.91;98565.22;5112779;28;20183;-56
2023/09/10 10:03:25;;;;;;;5.70;3.05;;;;;;;26.14;38.16;98554.44;5112730;28;20175;-56
2023/09/10 10:05:51;;;;;;;4.43;2.70;;;;;;;26.33;37.91;98576.72;5112757;28;20167;-56
2023/09/10 10:08:25;;;;;;;6.15;2.83;;;;;;;26.28;37.84;98544.66;5112324;28;20176;-56
2023/09/10 10:10:50;;;;;;;3.97;3.08;;;;;;;26.60;38.47;98579.25;5112786;28;20202;-56
2023/09/10 10:13:18;;;;;;;3.33;2.97;;;;;;;26.71;38.27;98569.91;5112510;28;20203;-56
2023/09/10 10:15:48;;;;;;;3.65;2.95;;;;;;;26.77;37.20;98553.16;5069586;28;20196;-56
2023/09/10 10:18:18;;;;;;;5.18;2.92;;;;;;;27.00;37.11;98570.31;5069291;28;20196;-56
2023/09/10 10:20:47;;;;;;;6.13;2.60;;;;;;;27.01;36.25;98557.84;5069244;28;20184;-56
2023/09/10 10:23:14;;;;;;;4.32;2.67;;;;;;;27.23;36.10;98578.72;5069111;28;20180;-56
2023/09/10 10:25:41;;;;;;;7.93;2.75;;;;;;;27.23;36.33;98560.09;5069195;28;20184;-57
2023/09/10 10:28:09;;;;;;;10.07;2.80;;;;;;;27.41;35.74;98578.88;5068225;28;20172;-57
2023/09/10 10:30:38;;;;;;;6.78;3.03;;;;;;;27.48;35.71;98586.84;5069008;28;20283;-57
2023/09/10 10:33:09;;;;;;;6.10;2.65;;;;;;;27.46;35.55;98572.97;5068964;28;20396;-56
2023/09/10 10:35:41;;;;;;;5.78;2.35;;;;;;;27.19;35.09;98584.66;5069166;28;20633;-56
2023/09/10 10:38:08;;;;;;;4.20;3.63;;;;;;;27.19;35.75;98582.81;5069045;28;20169;-57
2023/09/10 10:40:43;;;;;;;5.35;2.95;;;;;;;27.35;34.96;98569.09;5068997;28;20184;-57
2023/09/10 10:43:09;;;;;;;4.25;2.63;;;;;;;27.66;35.04;98601.16;5068982;28;20187;-57
2023/09/10 10:45:35;;;;;;;3.33;2.80;;;;;;;27.49;34.71;98565.38;5070438;28;20195;-56
2023/09/10 10:48:07;;;;;;;4.05;2.40;;;;;;;27.85;34.61;98581.69;5111877;28;20175;-56
2023/09/10 10:50:35;;;;;;;3.53;2.58;;;;;;;27.97;34.11;98572.00;5111959;28;20246;-57
2023/09/10 10:53:15;;;;;;;5.32;2.80;;;;;;;28.09;33.59;98557.03;5111867;28;20699;-57
2023/09/10 10:55:42;;;;;;;6.90;2.67;;;;;;;28.08;33.49;98550.06;5111908;28;20676;-57
2023/09/10 10:58:07;;;;;;;6.35;3.45;;;;;;;28.23;33.13;98555.91;5111699;28;20522;-57
2023/09/10 11:00:33;;;;;;;6.53;3.25;;;;;;;28.21;33.68;98546.53;5111714;28;20167;-56
2023/09/10 11:03:15;;;;;;;3.17;2.42;;;;;;;28.30;32.89;98551.38;5111619;28;20171;-57
2023/09/10 11:05:57;;;;;;;4.53;2.47;;;;;;;28.52;33.28;98560.69;5111527;28;20172;-57
2023/09/10 11:08:40;;;;;;;2.75;2.25;;;;;;;28.75;33.55;98560.13;5111794;28;20293;-57
2023/09/10 11:11:30;;;;;;;5.70;2.38;;;;;;;28.58;32.95;98541.19;5111088;28;20201;-56
2023/09/10 11:14:02;;;;;;;5.85;2.70;;;;;;;28.63;33.30;98522.72;5110954;28;20236;-56
2023/09/10 11:16:32;;;;;;;4.90;2.60;;;;;;;28.88;33.50;98552.88;5111555;28;20171;-57
2023/09/10 11:19:01;;;;;;;8.35;3.15;;;;;;;28.75;33.52;98530.84;5111559;28;20190;-57
2023/09/10 11:21:54;;;;;;;14.23;9.25;;;;;;;28.77;32.99;98542.91;5111727;28;20284;-56
2023/09/10 11:24:20;;;;;;;4.68;3.05;;;;;;;28.88;32.87;98552.88;5111510;28;20233;-56
2023/09/10 11:26:45;;;;;;;3.13;2.47;;;;;;;28.59;32.71;98544.69;5111472;28;20179;-56
2023/09/10 11:29:18;;;;;;;3.33;2.53;;;;;;;28.51;33.04;98542.28;5111356;28;20183;-56
2023/09/10 11:31:46;;;;;;;2.55;2.35;;;;;;;28.77;33.08;98524.25;5111250;28;20198;-56
2023/09/10 11:34:15;;;;;;;9.02;2.97;;;;;;;29.06;32.74;98523.63;5111328;28;20171;-56